sensor_id;sensor_type;location;lat;lon;timestamp;pressure;altitude;pressure_sealevel;temperature;humidity
40954;BME280;26686;50.130;8.710;2022-10-17T00:04:53;100545.38;;;16.42;100.00
40954;BME280;26686;50.130;8.710;2022-10-17T00:09:54;100550.22;;;16.38;100.00
40954;BME280;26686;50.130;8.710;2022-10-17T00:14:55;100557.06;;;16.33;100.00
40954;BME280;26686;50.130;8.710;2022-10-17T00:19:58;100556.53;;;16.29;100.00
40954;BME280;26686;50.130;8.710;2022-10-17T00:25:00;100564.44;;;16.31;100.00
40954;BME280;26686;50.130;8.710;2022-10-17T00:30:02;100568.63;;;16.33;100.00
40954;BME280;26686;50.130;8.710;2022-10-17T00:35:05;100568.47;;;16.35;100.00
40954;BME280;26686;50.130;8.710;2022-10-17T00:40:07;100566.97;;;16.32;100.00
40954;BME280;26686;50.130;8.710;2022-10-17T00:50:23;100567.28;;;16.29;100.00
40954;BME280;26686;50.130;8.710;2022-10-17T00:55:27;100571.25;;;16.25;100.00
40954;BME280;26686;50.130;8.710;2022-10-17T01:00:31;100567.63;;;16.16;100.00
40954;BME280;26686;50.130;8.710;2022-10-17T01:05:32;100577.09;;;16.20;100.00
40954;BME280;26686;50.130;8.710;2022-10-17T01:11:02;100583.13;;;16.22;100.00
40954;BME280;26686;50.130;8.710;2022-10-17T01:16:28;100580.84;;;16.28;100.00
40954;BME280;26686;50.130;8.710;2022-10-17T01:21:54;100582.47;;;16.20;100.00
40954;BME280;26686;50.130;8.710;2022-10-17T01:27:23;100584.66;;;16.07;100.00
40954;BME280;26686;50.130;8.710;2022-10-17T01:32:46;100579.91;;;16.01;100.00
40954;BME280;26686;50.130;8.710;2022-10-17T01:38:06;100583.88;;;15.97;100.00
40954;BME280;26686;50.130;8.710;2022-10-17T01:48:39;100572.50;;;15.85;100.00
40954;BME280;26686;50.130;8.710;2022-10-17T01:53:53;100581.16;;;15.79;100.00
40954;BME280;26686;50.130;8.710;2022-10-17T01:59:00;100571.53;;;15.76;100.00
40954;BME280;26686;50.130;8.710;2022-10-17T02:04:04;100578.59;;;15.77;100.00
40954;BME280;26686;50.130;8.710;2022-10-17T02:09:22;100574.81;;;15.80;100.00
40954;BME280;26686;50.130;8.710;2022-10-17T02:14:33;100570.53;;;15.77;100.00
40954;BME280;26686;50.130;8.710;2022-10-17T02:20:08;100568.59;;;15.69;100.00
40954;BME280;26686;50.130;8.710;2022-10-17T02:25:30;100569.19;;;15.63;100.00
40954;BME280;26686;50.130;8.710;2022-10-17T02:30:54;100581.47;;;15.66;100.00
40954;BME280;26686;50.130;8.710;2022-10-17T02:36:02;100582.03;;;15.69;100.00
40954;BME280;26686;50.130;8.710;2022-10-17T02:41:09;100572.41;;;15.67;100.00
40954;BME280;26686;50.130;8.710;2022-10-17T02:46:15;100580.47;;;15.67;100.00
40954;BME280;26686;50.130;8.710;2022-10-17T02:51:48;100576.97;;;15.56;100.00
40954;BME280;26686;50.130;8.710;2022-10-17T02:56:55;100587.41;;;15.60;100.00
40954;BME280;26686;50.130;8.710;2022-10-17T03:02:03;100586.03;;;15.55;100.00
40954;BME280;26686;50.130;8.710;2022-10-17T03:07:04;100600.00;;;15.59;100.00
40954;BME280;26686;50.130;8.710;2022-10-17T03:12:07;100584.78;;;15.50;100.00
40954;BME280;26686;50.130;8.710;2022-10-17T03:17:08;100595.66;;;15.48;100.00
40954;BME280;26686;50.130;8.710;2022-10-17T03:22:09;100593.44;;;15.44;100.00
40954;BME280;26686;50.130;8.710;2022-10-17T03:27:11;100597.22;;;15.51;100.00
40954;BME280;26686;50.130;8.710;2022-10-17T03:32:12;100604.69;;;15.47;100.00
40954;BME280;26686;50.130;8.710;2022-10-17T03:37:13;100614.03;;;15.43;100.00
40954;BME280;26686;50.130;8.710;2022-10-17T03:42:15;100615.13;;;15.50;100.00
40954;BME280;26686;50.130;8.710;2022-10-17T03:47:16;100625.56;;;15.53;100.00
40954;BME280;26686;50.130;8.710;2022-10-17T03:52:17;100632.94;;;15.51;100.00
40954;BME280;26686;50.130;8.710;2022-10-17T03:57:19;100632.13;;;15.41;100.00
40954;BME280;26686;50.130;8.710;2022-10-17T04:02:20;100638.06;;;15.45;100.00
40954;BME280;26686;50.130;8.710;2022-10-17T04:07:22;100644.97;;;15.37;100.00
40954;BME280;26686;50.130;8.710;2022-10-17T04:12:23;100639.19;;;15.42;100.00
40954;BME280;26686;50.130;8.710;2022-10-17T04:17:24;100641.72;;;15.44;100.00
40954;BME280;26686;50.130;8.710;2022-10-17T04:22:26;100639.44;;;15.49;100.00
40954;BME280;26686;50.130;8.710;2022-10-17T04:27:27;100644.94;;;15.47;100.00
40954;BME280;26686;50.130;8.710;2022-10-17T04:32:29;100647.63;;;15.47;100.00
40954;BME280;26686;50.130;8.710;2022-10-17T04:37:31;100642.56;;;15.44;100.00
40954;BME280;26686;50.130;8.710;2022-10-17T04:42:32;100655.84;;;15.36;100.00
40954;BME280;26686;50.130;8.710;2022-10-17T04:47:33;100666.28;;;15.39;100.00
40954;BME280;26686;50.130;8.710;2022-10-17T04:52:35;100655.56;;;15.39;100.00
40954;BME280;26686;50.130;8.710;2022-10-17T04:57:37;100661.81;;;15.30;100.00
40954;BME280;26686;50.130;8.710;2022-10-17T05:02:38;100649.09;;;15.22;100.00
40954;BME280;26686;50.130;8.710;2022-10-17T05:07:40;100665.75;;;15.26;100.00
40954;BME280;26686;50.130;8.710;2022-10-17T05:12:41;100670.28;;;15.15;100.00
40954;BME280;26686;50.130;8.710;2022-10-17T05:17:43;100676.50;;;15.06;100.00
40954;BME280;26686;50.130;8.710;2022-10-17T05:22:44;100676.78;;;15.23;100.00
40954;BME280;26686;50.130;8.710;2022-10-17T05:27:46;100674.53;;;15.18;100.00
40954;BME280;26686;50.130;8.710;2022-10-17T05:32:51;100676.50;;;15.06;100.00
40954;BME280;26686;50.130;8.710;2022-10-17T05:37:53;100679.91;;;14.98;100.00
40954;BME280;26686;50.130;8.710;2022-10-17T05:42:54;100675.13;;;14.92;100.00
40954;BME280;26686;50.130;8.710;2022-10-17T05:47:56;100678.91;;;14.90;100.00
40954;BME280;26686;50.130;8.710;2022-10-17T05:52:57;100673.97;;;14.95;100.00
40954;BME280;26686;50.130;8.710;2022-10-17T05:57:59;100673.53;;;14.99;100.00
40954;BME280;26686;50.130;8.710;2022-10-17T06:03:01;100675.38;;;15.09;100.00
40954;BME280;26686;50.130;8.710;2022-10-17T06:08:02;100686.66;;;15.12;100.00
40954;BME280;26686;50.130;8.710;2022-10-17T06:13:04;100681.00;;;15.15;100.00
40954;BME280;26686;50.130;8.710;2022-10-17T06:18:05;100697.34;;;15.22;100.00
40954;BME280;26686;50.130;8.710;2022-10-17T06:23:06;100690.88;;;15.25;100.00
40954;BME280;26686;50.130;8.710;2022-10-17T06:28:07;100704.72;;;15.30;100.00
40954;BME280;26686;50.130;8.710;2022-10-17T06:33:10;100704.44;;;15.33;100.00
40954;BME280;26686;50.130;8.710;2022-10-17T06:38:11;100712.03;;;15.37;100.00
40954;BME280;26686;50.130;8.710;2022-10-17T06:43:13;100707.81;;;15.45;100.00
40954;BME280;26686;50.130;8.710;2022-10-17T06:48:14;100719.06;;;15.48;100.00
40954;BME280;26686;50.130;8.710;2022-10-17T06:53:16;100724.13;;;15.61;100.00
40954;BME280;26686;50.130;8.710;2022-10-17T06:58:17;100734.84;;;15.71;100.00
40954;BME280;26686;50.130;8.710;2022-10-17T07:03:18;100731.72;;;15.85;100.00
40954;BME280;26686;50.130;8.710;2022-10-17T07:08:20;100738.00;;;16.04;100.00
40954;BME280;26686;50.130;8.710;2022-10-17T07:13:22;100734.13;;;16.26;98.74
40954;BME280;26686;50.130;8.710;2022-10-17T07:18:23;100735.16;;;16.43;98.14
40954;BME280;26686;50.130;8.710;2022-10-17T07:23:25;100730.50;;;16.63;94.45
40954;BME280;26686;50.130;8.710;2022-10-17T07:28:27;100737.59;;;16.82;94.73
40954;BME280;26686;50.130;8.710;2022-10-17T07:33:29;100756.97;;;17.04;93.74
40954;BME280;26686;50.130;8.710;2022-10-17T07:38:30;100769.59;;;17.21;93.80
40954;BME280;26686;50.130;8.710;2022-10-17T07:43:32;100763.34;;;17.39;91.29
40954;BME280;26686;50.130;8.710;2022-10-17T07:48:34;100770.38;;;17.58;89.28
40954;BME280;26686;50.130;8.710;2022-10-17T07:53:38;100774.41;;;17.80;87.27
40954;BME280;26686;50.130;8.710;2022-10-17T07:58:44;100775.28;;;18.07;87.61
40954;BME280;26686;50.130;8.710;2022-10-17T08:03:46;100774.63;;;18.39;85.30
40954;BME280;26686;50.130;8.710;2022-10-17T08:08:48;100765.47;;;18.75;83.42
40954;BME280;26686;50.130;8.710;2022-10-17T08:13:49;100782.75;;;19.15;81.90
40954;BME280;26686;50.130;8.710;2022-10-17T08:18:51;100764.88;;;19.47;79.80
40954;BME280;26686;50.130;8.710;2022-10-17T08:23:52;100763.72;;;19.66;77.68
40954;BME280;26686;50.130;8.710;2022-10-17T08:28:53;100767.25;;;19.74;78.30
40954;BME280;26686;50.130;8.710;2022-10-17T08:33:55;100764.56;;;19.58;76.46
40954;BME280;26686;50.130;8.710;2022-10-17T08:38:56;100768.75;;;19.60;76.33
40954;BME280;26686;50.130;8.710;2022-10-17T08:44:08;100790.50;;;19.75;75.39
40954;BME280;26686;50.130;8.710;2022-10-17T08:49:24;100789.69;;;19.91;74.20
40954;BME280;26686;50.130;8.710;2022-10-17T08:54:45;100777.03;;;19.92;73.74
40954;BME280;26686;50.130;8.710;2022-10-17T08:59:52;100781.31;;;20.26;73.87
40954;BME280;26686;50.130;8.710;2022-10-17T09:05:18;100773.53;;;20.31;71.83
40954;BME280;26686;50.130;8.710;2022-10-17T09:10:37;100763.59;;;20.63;71.32
40954;BME280;26686;50.130;8.710;2022-10-17T09:15:54;100765.63;;;20.69;69.92
40954;BME280;26686;50.130;8.710;2022-10-17T09:21:09;100781.84;;;20.61;70.92
40954;BME280;26686;50.130;8.710;2022-10-17T09:26:13;100793.59;;;20.84;71.97
40954;BME280;26686;50.130;8.710;2022-10-17T09:31:31;100795.84;;;21.04;67.86
40954;BME280;26686;50.130;8.710;2022-10-17T09:36:37;100790.66;;;22.17;66.89
40954;BME280;26686;50.130;8.710;2022-10-17T09:41:50;100797.03;;;22.90;61.10
40954;BME280;26686;50.130;8.710;2022-10-17T09:52:26;100794.25;;;25.97;52.25
40954;BME280;26686;50.130;8.710;2022-10-17T09:57:50;100799.19;;;27.31;48.76
40954;BME280;26686;50.130;8.710;2022-10-17T10:08:17;100816.50;;;26.79;48.19
40954;BME280;26686;50.130;8.710;2022-10-17T10:13:19;100813.06;;;26.97;47.23
40954;BME280;26686;50.130;8.710;2022-10-17T10:23:25;100812.16;;;30.76;40.85
40954;BME280;26686;50.130;8.710;2022-10-17T10:28:34;100804.28;;;33.59;32.64
40954;BME280;26686;50.130;8.710;2022-10-17T10:33:42;100810.00;;;34.91;31.33
40954;BME280;26686;50.130;8.710;2022-10-17T10:38:53;100804.72;;;34.79;30.80
40954;BME280;26686;50.130;8.710;2022-10-17T10:43:55;100806.75;;;35.45;30.22
40954;BME280;26686;50.130;8.710;2022-10-17T10:48:58;100795.88;;;34.18;29.74
40954;BME280;26686;50.130;8.710;2022-10-17T10:54:07;100807.84;;;35.60;29.81
40954;BME280;26686;50.130;8.710;2022-10-17T10:59:21;100802.16;;;37.37;26.63
40954;BME280;26686;50.130;8.710;2022-10-17T11:04:32;100801.31;;;38.00;25.04
40954;BME280;26686;50.130;8.710;2022-10-17T11:20:17;100799.44;;;40.41;22.57
40954;BME280;26686;50.130;8.710;2022-10-17T11:25:30;100799.88;;;40.99;20.76
40954;BME280;26686;50.130;8.710;2022-10-17T11:30:42;100811.63;;;42.27;20.85
40954;BME280;26686;50.130;8.710;2022-10-17T11:35:46;100802.34;;;42.84;19.79
40954;BME280;26686;50.130;8.710;2022-10-17T11:40:52;100797.38;;;43.33;18.73
40954;BME280;26686;50.130;8.710;2022-10-17T11:46:01;100786.16;;;42.46;19.35
40954;BME280;26686;50.130;8.710;2022-10-17T11:51:11;100779.63;;;42.94;19.02
40954;BME280;26686;50.130;8.710;2022-10-17T12:01:52;100792.47;;;43.13;18.60
40954;BME280;26686;50.130;8.710;2022-10-17T12:12:26;100785.69;;;42.70;19.30
40954;BME280;26686;50.130;8.710;2022-10-17T12:17:33;100786.38;;;42.09;20.32
40954;BME280;26686;50.130;8.710;2022-10-17T12:22:46;100777.78;;;41.11;20.27
40954;BME280;26686;50.130;8.710;2022-10-17T12:27:48;100765.91;;;41.82;20.00
40954;BME280;26686;50.130;8.710;2022-10-17T12:38:30;100778.25;;;43.91;18.07
40954;BME280;26686;50.130;8.710;2022-10-17T12:43:36;100776.91;;;43.97;17.72
40954;BME280;26686;50.130;8.710;2022-10-17T12:54:15;100780.09;;;45.44;17.18
40954;BME280;26686;50.130;8.710;2022-10-17T12:59:24;100787.78;;;44.80;17.47
40954;BME280;26686;50.130;8.710;2022-10-17T13:04:27;100788.88;;;43.77;18.07
40954;BME280;26686;50.130;8.710;2022-10-17T13:09:36;100795.25;;;42.86;18.95
40954;BME280;26686;50.130;8.710;2022-10-17T13:14:40;100781.41;;;39.50;22.11
40954;BME280;26686;50.130;8.710;2022-10-17T13:19:44;100786.97;;;38.12;24.30
40954;BME280;26686;50.130;8.710;2022-10-17T13:24:46;100770.75;;;39.85;21.99
40954;BME280;26686;50.130;8.710;2022-10-17T13:29:48;100777.69;;;39.03;22.98
40954;BME280;26686;50.130;8.710;2022-10-17T13:35:08;100778.63;;;38.98;23.75
40954;BME280;26686;50.130;8.710;2022-10-17T13:40:18;100790.16;;;41.19;21.50
40954;BME280;26686;50.130;8.710;2022-10-17T13:45:45;100793.38;;;41.58;20.00
40954;BME280;26686;50.130;8.710;2022-10-17T13:50:51;100807.84;;;42.22;19.71
40954;BME280;26686;50.130;8.710;2022-10-17T13:55:56;100800.34;;;42.67;19.42
40954;BME280;26686;50.130;8.710;2022-10-17T14:01:19;100792.31;;;42.91;19.65
40954;BME280;26686;50.130;8.710;2022-10-17T14:06:26;100794.56;;;42.37;19.17
40954;BME280;26686;50.130;8.710;2022-10-17T14:11:37;100798.13;;;41.89;20.24
40954;BME280;26686;50.130;8.710;2022-10-17T14:16:40;100801.75;;;41.58;20.97
40954;BME280;26686;50.130;8.710;2022-10-17T14:21:47;100800.63;;;41.36;21.34
40954;BME280;26686;50.130;8.710;2022-10-17T14:26:54;100804.63;;;40.48;22.24
40954;BME280;26686;50.130;8.710;2022-10-17T14:32:06;100807.88;;;39.94;23.37
40954;BME280;26686;50.130;8.710;2022-10-17T14:42:24;100800.34;;;35.24;28.45
40954;BME280;26686;50.130;8.710;2022-10-17T14:47:26;100814.47;;;33.86;31.04
40954;BME280;26686;50.130;8.710;2022-10-17T14:53:00;100815.00;;;31.10;35.45
40954;BME280;26686;50.130;8.710;2022-10-17T14:58:16;100831.72;;;29.38;39.07
40954;BME280;26686;50.130;8.710;2022-10-17T15:03:17;100835.44;;;28.46;41.33
40954;BME280;26686;50.130;8.710;2022-10-17T15:08:22;100837.28;;;27.83;43.64
40954;BME280;26686;50.130;8.710;2022-10-17T15:13:23;100844.44;;;27.20;45.69
40954;BME280;26686;50.130;8.710;2022-10-17T15:18:29;100847.00;;;26.63;47.56
40954;BME280;26686;50.130;8.710;2022-10-17T15:23:32;100853.56;;;26.42;48.06
40954;BME280;26686;50.130;8.710;2022-10-17T15:28:33;100849.47;;;25.99;48.54
40954;BME280;26686;50.130;8.710;2022-10-17T15:33:35;100853.19;;;25.85;48.74
40954;BME280;26686;50.130;8.710;2022-10-17T15:38:36;100857.81;;;25.71;49.29
40954;BME280;26686;50.130;8.710;2022-10-17T15:43:37;100872.25;;;25.51;50.09
40954;BME280;26686;50.130;8.710;2022-10-17T15:48:39;100866.59;;;25.39;49.95
40954;BME280;26686;50.130;8.710;2022-10-17T15:53:43;100854.97;;;25.11;50.94
40954;BME280;26686;50.130;8.710;2022-10-17T15:58:45;100868.69;;;24.89;51.84
40954;BME280;26686;50.130;8.710;2022-10-17T16:03:47;100863.66;;;24.79;53.17
40954;BME280;26686;50.130;8.710;2022-10-17T16:08:51;100873.59;;;24.59;52.90
40954;BME280;26686;50.130;8.710;2022-10-17T16:13:53;100872.44;;;24.46;53.88
40954;BME280;26686;50.130;8.710;2022-10-17T16:18:56;100880.88;;;24.23;54.64
40954;BME280;26686;50.130;8.710;2022-10-17T16:23:58;100889.97;;;24.09;55.54
40954;BME280;26686;50.130;8.710;2022-10-17T16:28:59;100891.34;;;23.98;55.84
40954;BME280;26686;50.130;8.710;2022-10-17T16:34:03;100901.72;;;23.88;57.68
40954;BME280;26686;50.130;8.710;2022-10-17T16:39:06;100900.97;;;23.79;57.53
40954;BME280;26686;50.130;8.710;2022-10-17T16:44:10;100898.91;;;23.59;58.05
40954;BME280;26686;50.130;8.710;2022-10-17T16:49:14;100901.78;;;23.51;58.69
40954;BME280;26686;50.130;8.710;2022-10-17T16:54:18;100912.09;;;23.41;59.07
40954;BME280;26686;50.130;8.710;2022-10-17T16:59:19;100921.03;;;23.35;59.71
40954;BME280;26686;50.130;8.710;2022-10-17T17:04:20;100925.56;;;23.12;60.76
40954;BME280;26686;50.130;8.710;2022-10-17T17:09:22;100928.81;;;23.08;61.44
40954;BME280;26686;50.130;8.710;2022-10-17T17:14:23;100931.53;;;22.93;62.27
40954;BME280;26686;50.130;8.710;2022-10-17T17:19:25;100939.59;;;22.86;62.13
40954;BME280;26686;50.130;8.710;2022-10-17T17:24:27;100942.03;;;22.81;62.51
40954;BME280;26686;50.130;8.710;2022-10-17T17:29:28;100938.66;;;22.79;63.10
40954;BME280;26686;50.130;8.710;2022-10-17T17:34:34;100954.28;;;22.77;63.60
40954;BME280;26686;50.130;8.710;2022-10-17T17:39:35;100949.59;;;22.71;63.13
40954;BME280;26686;50.130;8.710;2022-10-17T17:44:37;100951.28;;;22.72;63.19
40954;BME280;26686;50.130;8.710;2022-10-17T17:49:38;100948.28;;;22.67;64.06
40954;BME280;26686;50.130;8.710;2022-10-17T17:54:39;100949.03;;;22.60;66.05
40954;BME280;26686;50.130;8.710;2022-10-17T17:59:41;100970.38;;;22.64;66.59
40954;BME280;26686;50.130;8.710;2022-10-17T18:04:42;100967.25;;;22.52;67.17
40954;BME280;26686;50.130;8.710;2022-10-17T18:09:43;100972.59;;;22.45;66.87
40954;BME280;26686;50.130;8.710;2022-10-17T18:14:46;100976.41;;;22.36;67.61
40954;BME280;26686;50.130;8.710;2022-10-17T18:19:47;100972.00;;;22.35;68.47
40954;BME280;26686;50.130;8.710;2022-10-17T18:24:49;100987.66;;;22.24;68.79
40954;BME280;26686;50.130;8.710;2022-10-17T18:29:50;101000.03;;;22.04;69.25
40954;BME280;26686;50.130;8.710;2022-10-17T18:34:51;100990.56;;;22.00;69.25
40954;BME280;26686;50.130;8.710;2022-10-17T18:39:53;101003.34;;;21.91;70.79
40954;BME280;26686;50.130;8.710;2022-10-17T18:44:55;100994.78;;;21.79;71.90
40954;BME280;26686;50.130;8.710;2022-10-17T18:49:57;100998.38;;;21.71;72.31
40954;BME280;26686;50.130;8.710;2022-10-17T18:54:58;100991.63;;;21.67;72.88
40954;BME280;26686;50.130;8.710;2022-10-17T18:59:59;101011.47;;;21.60;72.50
40954;BME280;26686;50.130;8.710;2022-10-17T19:05:01;101011.13;;;21.63;73.20
40954;BME280;26686;50.130;8.710;2022-10-17T19:10:02;101009.13;;;21.57;73.33
40954;BME280;26686;50.130;8.710;2022-10-17T19:15:04;101010.50;;;21.52;73.06
40954;BME280;26686;50.130;8.710;2022-10-17T19:20:06;101003.06;;;21.54;73.88
40954;BME280;26686;50.130;8.710;2022-10-17T19:25:07;101009.66;;;21.52;74.09
40954;BME280;26686;50.130;8.710;2022-10-17T19:30:09;101002.22;;;21.46;74.72
40954;BME280;26686;50.130;8.710;2022-10-17T19:35:12;101006.81;;;21.45;75.08
40954;BME280;26686;50.130;8.710;2022-10-17T19:40:14;100999.53;;;21.37;75.24
40954;BME280;26686;50.130;8.710;2022-10-17T19:45:15;100995.69;;;21.32;75.76
40954;BME280;26686;50.130;8.710;2022-10-17T19:50:16;100987.22;;;21.27;75.43
40954;BME280;26686;50.130;8.710;2022-10-17T19:55:18;100992.69;;;21.18;76.15
40954;BME280;26686;50.130;8.710;2022-10-17T20:00:19;100989.34;;;21.00;77.19
40954;BME280;26686;50.130;8.710;2022-10-17T20:05:20;100988.41;;;20.93;77.60
40954;BME280;26686;50.130;8.710;2022-10-17T20:10:27;100989.41;;;20.83;77.68
40954;BME280;26686;50.130;8.710;2022-10-17T20:15:28;100986.75;;;20.75;78.30
40954;BME280;26686;50.130;8.710;2022-10-17T20:20:30;101001.63;;;20.71;78.18
40954;BME280;26686;50.130;8.710;2022-10-17T20:25:33;100999.91;;;20.70;78.53
40954;BME280;26686;50.130;8.710;2022-10-17T20:30:43;100995.16;;;20.64;78.87
40954;BME280;26686;50.130;8.710;2022-10-17T20:35:45;101001.97;;;20.60;78.86
40954;BME280;26686;50.130;8.710;2022-10-17T20:40:46;101009.53;;;20.56;78.99
40954;BME280;26686;50.130;8.710;2022-10-17T20:45:48;101012.28;;;20.48;79.33
40954;BME280;26686;50.130;8.710;2022-10-17T20:50:52;101013.78;;;20.42;79.72
40954;BME280;26686;50.130;8.710;2022-10-17T20:56:06;101014.47;;;20.36;79.33
40954;BME280;26686;50.130;8.710;2022-10-17T21:01:09;101024.28;;;20.29;80.30
40954;BME280;26686;50.130;8.710;2022-10-17T21:06:11;101011.75;;;20.28;81.22
40954;BME280;26686;50.130;8.710;2022-10-17T21:11:13;101024.59;;;20.26;81.02
40954;BME280;26686;50.130;8.710;2022-10-17T21:16:17;101020.22;;;20.17;81.27
40954;BME280;26686;50.130;8.710;2022-10-17T21:21:24;101025.78;;;20.15;81.49
40954;BME280;26686;50.130;8.710;2022-10-17T21:26:31;101024.25;;;20.12;82.19
40954;BME280;26686;50.130;8.710;2022-10-17T21:31:38;101019.53;;;20.06;82.27
40954;BME280;26686;50.130;8.710;2022-10-17T21:36:40;101020.53;;;20.05;82.18
40954;BME280;26686;50.130;8.710;2022-10-17T21:41:42;101024.44;;;20.03;82.19
40954;BME280;26686;50.130;8.710;2022-10-17T21:46:45;101023.91;;;19.99;82.50
40954;BME280;26686;50.130;8.710;2022-10-17T21:51:47;101026.25;;;19.94;82.84
40954;BME280;26686;50.130;8.710;2022-10-17T21:56:49;101012.06;;;19.92;83.17
40954;BME280;26686;50.130;8.710;2022-10-17T22:01:51;101021.69;;;19.94;83.33
40954;BME280;26686;50.130;8.710;2022-10-17T22:06:52;101017.47;;;19.92;82.90
40954;BME280;26686;50.130;8.710;2022-10-17T22:11:54;101017.97;;;19.87;83.34
40954;BME280;26686;50.130;8.710;2022-10-17T22:16:56;101015.59;;;19.84;83.64
40954;BME280;26686;50.130;8.710;2022-10-17T22:21:57;101012.22;;;19.82;84.19
40954;BME280;26686;50.130;8.710;2022-10-17T22:26:59;101015.72;;;19.74;83.92
40954;BME280;26686;50.130;8.710;2022-10-17T22:32:00;101000.34;;;19.75;84.09
40954;BME280;26686;50.130;8.710;2022-10-17T22:37:02;101006.94;;;19.72;84.21
40954;BME280;26686;50.130;8.710;2022-10-17T22:42:03;101007.97;;;19.71;83.99
40954;BME280;26686;50.130;8.710;2022-10-17T22:47:04;101004.22;;;19.72;84.50
40954;BME280;26686;50.130;8.710;2022-10-17T22:52:05;101002.56;;;19.71;84.28
40954;BME280;26686;50.130;8.710;2022-10-17T22:57:07;101002.88;;;19.76;84.86
40954;BME280;26686;50.130;8.710;2022-10-17T23:02:08;100993.41;;;19.72;84.18
40954;BME280;26686;50.130;8.710;2022-10-17T23:07:09;100985.81;;;19.59;84.56
40954;BME280;26686;50.130;8.710;2022-10-17T23:12:12;100985.13;;;19.57;85.21
40954;BME280;26686;50.130;8.710;2022-10-17T23:17:14;100978.88;;;19.57;85.15
40954;BME280;26686;50.130;8.710;2022-10-17T23:22:15;100988.16;;;19.54;85.13
40954;BME280;26686;50.130;8.710;2022-10-17T23:27:16;100990.34;;;19.51;85.19
40954;BME280;26686;50.130;8.710;2022-10-17T23:32:19;101004.16;;;19.48;84.92
40954;BME280;26686;50.130;8.710;2022-10-17T23:37:21;100996.41;;;19.45;84.92
40954;BME280;26686;50.130;8.710;2022-10-17T23:42:22;100998.09;;;19.46;85.81
40954;BME280;26686;50.130;8.710;2022-10-17T23:47:23;100985.56;;;19.36;85.69
40954;BME280;26686;50.130;8.710;2022-10-17T23:52:25;100990.97;;;19.36;85.80
40954;BME280;26686;50.130;8.710;2022-10-17T23:57:26;100991.59;;;19.30;85.99
